sensor_id;sensor_type;location;lat;lon;timestamp;P1;durP1;ratioP1;P2;durP2;ratioP2
48765;SDS011;34570;51.836;5.002;2022-07-23T00:00:39;6.75;;;3.17;;
48765;SDS011;34570;51.836;5.002;2022-07-23T00:03:05;8.50;;;3.53;;
48765;SDS011;34570;51.836;5.002;2022-07-23T00:05:30;6.05;;;3.53;;
48765;SDS011;34570;51.836;5.002;2022-07-23T00:07:56;6.28;;;3.50;;
48765;SDS011;34570;51.836;5.002;2022-07-23T00:10:21;7.55;;;3.50;;
48765;SDS011;34570;51.836;5.002;2022-07-23T00:12:47;8.82;;;3.55;;
48765;SDS011;34570;51.836;5.002;2022-07-23T00:15:12;5.70;;;3.15;;
48765;SDS011;34570;51.836;5.002;2022-07-23T00:17:38;7.82;;;3.40;;
48765;SDS011;34570;51.836;5.002;2022-07-23T00:20:04;7.57;;;3.40;;
48765;SDS011;34570;51.836;5.002;2022-07-23T00:22:29;6.20;;;3.30;;
48765;SDS011;34570;51.836;5.002;2022-07-23T00:24:55;9.50;;;3.38;;
48765;SDS011;34570;51.836;5.002;2022-07-23T00:27:21;7.65;;;3.08;;
48765;SDS011;34570;51.836;5.002;2022-07-23T00:29:46;7.18;;;3.13;;
48765;SDS011;34570;51.836;5.002;2022-07-23T00:32:12;17.45;;;3.75;;
48765;SDS011;34570;51.836;5.002;2022-07-23T00:34:38;8.00;;;3.28;;
48765;SDS011;34570;51.836;5.002;2022-07-23T00:37:03;6.20;;;3.63;;
48765;SDS011;34570;51.836;5.002;2022-07-23T00:39:29;8.48;;;4.13;;
48765;SDS011;34570;51.836;5.002;2022-07-23T00:41:55;9.90;;;4.95;;
48765;SDS011;34570;51.836;5.002;2022-07-23T00:44:25;7.30;;;3.40;;
48765;SDS011;34570;51.836;5.002;2022-07-23T00:46:52;5.72;;;2.83;;
48765;SDS011;34570;51.836;5.002;2022-07-23T00:49:37;5.65;;;2.90;;
48765;SDS011;34570;51.836;5.002;2022-07-23T00:52:02;12.23;;;3.38;;
48765;SDS011;34570;51.836;5.002;2022-07-23T00:54:28;4.32;;;2.63;;
48765;SDS011;34570;51.836;5.002;2022-07-23T00:56:53;4.47;;;2.75;;
48765;SDS011;34570;51.836;5.002;2022-07-23T00:59:19;7.57;;;2.85;;
48765;SDS011;34570;51.836;5.002;2022-07-23T01:01:45;9.90;;;2.83;;
48765;SDS011;34570;51.836;5.002;2022-07-23T01:04:13;7.57;;;2.70;;
48765;SDS011;34570;51.836;5.002;2022-07-23T01:06:40;5.30;;;2.67;;
48765;SDS011;34570;51.836;5.002;2022-07-23T01:09:06;8.25;;;3.00;;
48765;SDS011;34570;51.836;5.002;2022-07-23T01:11:32;5.57;;;2.67;;
48765;SDS011;34570;51.836;5.002;2022-07-23T01:13:58;11.13;;;3.40;;
48765;SDS011;34570;51.836;5.002;2022-07-23T01:16:24;5.90;;;2.92;;
48765;SDS011;34570;51.836;5.002;2022-07-23T01:18:49;5.35;;;2.72;;
48765;SDS011;34570;51.836;5.002;2022-07-23T01:21:15;5.28;;;2.60;;
48765;SDS011;34570;51.836;5.002;2022-07-23T01:23:43;7.88;;;2.40;;
48765;SDS011;34570;51.836;5.002;2022-07-23T01:26:08;5.20;;;2.78;;
48765;SDS011;34570;51.836;5.002;2022-07-23T01:28:34;5.15;;;2.92;;
48765;SDS011;34570;51.836;5.002;2022-07-23T01:30:59;9.10;;;2.85;;
48765;SDS011;34570;51.836;5.002;2022-07-23T01:33:29;8.27;;;3.10;;
48765;SDS011;34570;51.836;5.002;2022-07-23T01:35:55;7.97;;;3.45;;
48765;SDS011;34570;51.836;5.002;2022-07-23T01:38:23;5.20;;;2.90;;
48765;SDS011;34570;51.836;5.002;2022-07-23T01:40:49;7.68;;;3.17;;
48765;SDS011;34570;51.836;5.002;2022-07-23T01:43:14;7.90;;;3.53;;
48765;SDS011;34570;51.836;5.002;2022-07-23T01:45:40;6.05;;;2.90;;
48765;SDS011;34570;51.836;5.002;2022-07-23T01:48:06;7.47;;;3.40;;
48765;SDS011;34570;51.836;5.002;2022-07-23T01:50:32;8.88;;;3.15;;
48765;SDS011;34570;51.836;5.002;2022-07-23T01:53:16;6.85;;;3.22;;
48765;SDS011;34570;51.836;5.002;2022-07-23T01:55:42;7.95;;;2.97;;
48765;SDS011;34570;51.836;5.002;2022-07-23T01:58:08;6.07;;;3.30;;
48765;SDS011;34570;51.836;5.002;2022-07-23T02:00:35;5.63;;;3.33;;
48765;SDS011;34570;51.836;5.002;2022-07-23T02:03:01;8.70;;;3.35;;
48765;SDS011;34570;51.836;5.002;2022-07-23T02:05:27;12.65;;;3.58;;
48765;SDS011;34570;51.836;5.002;2022-07-23T02:07:58;10.65;;;3.30;;
48765;SDS011;34570;51.836;5.002;2022-07-23T02:10:23;9.15;;;3.35;;
48765;SDS011;34570;51.836;5.002;2022-07-23T02:12:49;11.65;;;3.35;;
48765;SDS011;34570;51.836;5.002;2022-07-23T02:15:15;6.68;;;3.45;;
48765;SDS011;34570;51.836;5.002;2022-07-23T02:17:40;10.48;;;3.60;;
48765;SDS011;34570;51.836;5.002;2022-07-23T02:20:06;5.32;;;3.35;;
48765;SDS011;34570;51.836;5.002;2022-07-23T02:22:32;8.23;;;3.55;;
48765;SDS011;34570;51.836;5.002;2022-07-23T02:24:57;7.45;;;3.40;;
48765;SDS011;34570;51.836;5.002;2022-07-23T02:27:23;9.98;;;4.15;;
48765;SDS011;34570;51.836;5.002;2022-07-23T02:29:49;9.25;;;3.88;;
48765;SDS011;34570;51.836;5.002;2022-07-23T02:32:14;12.70;;;3.88;;
48765;SDS011;34570;51.836;5.002;2022-07-23T02:34:40;6.90;;;4.00;;
48765;SDS011;34570;51.836;5.002;2022-07-23T02:37:05;4.97;;;3.17;;
48765;SDS011;34570;51.836;5.002;2022-07-23T02:39:31;5.75;;;3.47;;
48765;SDS011;34570;51.836;5.002;2022-07-23T02:41:58;7.60;;;3.53;;
48765;SDS011;34570;51.836;5.002;2022-07-23T02:44:23;8.70;;;4.15;;
48765;SDS011;34570;51.836;5.002;2022-07-23T02:46:51;8.68;;;3.83;;
48765;SDS011;34570;51.836;5.002;2022-07-23T02:49:17;7.57;;;4.05;;
48765;SDS011;34570;51.836;5.002;2022-07-23T02:51:44;9.05;;;3.60;;
48765;SDS011;34570;51.836;5.002;2022-07-23T02:54:11;6.40;;;3.45;;
48765;SDS011;34570;51.836;5.002;2022-07-23T02:56:36;6.55;;;3.35;;
48765;SDS011;34570;51.836;5.002;2022-07-23T02:59:02;6.25;;;3.80;;
48765;SDS011;34570;51.836;5.002;2022-07-23T03:01:27;5.85;;;3.00;;
48765;SDS011;34570;51.836;5.002;2022-07-23T03:03:53;8.23;;;4.00;;
48765;SDS011;34570;51.836;5.002;2022-07-23T03:06:20;7.60;;;3.17;;
48765;SDS011;34570;51.836;5.002;2022-07-23T03:08:46;7.60;;;3.95;;
48765;SDS011;34570;51.836;5.002;2022-07-23T03:11:11;10.65;;;3.80;;
48765;SDS011;34570;51.836;5.002;2022-07-23T03:13:38;9.70;;;4.32;;
48765;SDS011;34570;51.836;5.002;2022-07-23T03:16:04;7.78;;;3.97;;
48765;SDS011;34570;51.836;5.002;2022-07-23T03:18:30;8.50;;;4.20;;
48765;SDS011;34570;51.836;5.002;2022-07-23T03:20:55;8.57;;;4.05;;
48765;SDS011;34570;51.836;5.002;2022-07-23T03:23:21;6.95;;;3.78;;
48765;SDS011;34570;51.836;5.002;2022-07-23T03:25:47;7.38;;;3.70;;
48765;SDS011;34570;51.836;5.002;2022-07-23T03:28:15;6.03;;;3.80;;
48765;SDS011;34570;51.836;5.002;2022-07-23T03:30:44;7.13;;;3.63;;
48765;SDS011;34570;51.836;5.002;2022-07-23T03:33:12;9.98;;;4.28;;
48765;SDS011;34570;51.836;5.002;2022-07-23T03:35:37;6.00;;;3.67;;
48765;SDS011;34570;51.836;5.002;2022-07-23T03:38:23;9.93;;;4.10;;
48765;SDS011;34570;51.836;5.002;2022-07-23T03:40:49;8.07;;;4.25;;
48765;SDS011;34570;51.836;5.002;2022-07-23T03:43:15;9.32;;;4.13;;
48765;SDS011;34570;51.836;5.002;2022-07-23T03:45:40;7.88;;;4.18;;
48765;SDS011;34570;51.836;5.002;2022-07-23T03:48:06;10.30;;;3.70;;
48765;SDS011;34570;51.836;5.002;2022-07-23T03:50:32;8.15;;;3.88;;
48765;SDS011;34570;51.836;5.002;2022-07-23T03:52:57;8.02;;;3.83;;
48765;SDS011;34570;51.836;5.002;2022-07-23T03:55:23;11.30;;;4.53;;
48765;SDS011;34570;51.836;5.002;2022-07-23T03:57:48;8.93;;;4.03;;
48765;SDS011;34570;51.836;5.002;2022-07-23T04:00:14;11.18;;;4.38;;
48765;SDS011;34570;51.836;5.002;2022-07-23T04:02:41;8.98;;;4.05;;
48765;SDS011;34570;51.836;5.002;2022-07-23T04:05:07;9.45;;;4.10;;
48765;SDS011;34570;51.836;5.002;2022-07-23T04:07:33;6.63;;;4.10;;
48765;SDS011;34570;51.836;5.002;2022-07-23T04:09:58;9.20;;;3.75;;
48765;SDS011;34570;51.836;5.002;2022-07-23T04:12:24;8.43;;;3.88;;
48765;SDS011;34570;51.836;5.002;2022-07-23T04:14:50;9.13;;;3.75;;
48765;SDS011;34570;51.836;5.002;2022-07-23T04:17:15;10.75;;;4.25;;
48765;SDS011;34570;51.836;5.002;2022-07-23T04:19:41;8.82;;;3.83;;
48765;SDS011;34570;51.836;5.002;2022-07-23T04:22:09;6.00;;;3.55;;
48765;SDS011;34570;51.836;5.002;2022-07-23T04:24:36;8.38;;;3.53;;
48765;SDS011;34570;51.836;5.002;2022-07-23T04:29:53;9.65;;;4.18;;
48765;SDS011;34570;51.836;5.002;2022-07-23T04:32:18;7.80;;;3.53;;
48765;SDS011;34570;51.836;5.002;2022-07-23T04:34:44;8.63;;;4.15;;
48765;SDS011;34570;51.836;5.002;2022-07-23T04:37:10;7.28;;;3.42;;
48765;SDS011;34570;51.836;5.002;2022-07-23T04:39:36;8.07;;;3.85;;
48765;SDS011;34570;51.836;5.002;2022-07-23T04:42:01;5.68;;;3.33;;
48765;SDS011;34570;51.836;5.002;2022-07-23T04:44:29;8.38;;;3.88;;
48765;SDS011;34570;51.836;5.002;2022-07-23T04:46:54;6.45;;;3.58;;
48765;SDS011;34570;51.836;5.002;2022-07-23T04:49:20;6.40;;;3.50;;
48765;SDS011;34570;51.836;5.002;2022-07-23T04:51:45;8.70;;;3.88;;
48765;SDS011;34570;51.836;5.002;2022-07-23T04:54:11;7.80;;;3.55;;
48765;SDS011;34570;51.836;5.002;2022-07-23T04:56:36;9.65;;;3.55;;
48765;SDS011;34570;51.836;5.002;2022-07-23T04:59:02;10.73;;;4.05;;
48765;SDS011;34570;51.836;5.002;2022-07-23T05:01:27;9.02;;;3.80;;
48765;SDS011;34570;51.836;5.002;2022-07-23T05:03:53;10.70;;;4.50;;
48765;SDS011;34570;51.836;5.002;2022-07-23T05:06:19;9.55;;;3.60;;
48765;SDS011;34570;51.836;5.002;2022-07-23T05:08:46;10.02;;;3.70;;
48765;SDS011;34570;51.836;5.002;2022-07-23T05:11:11;7.63;;;2.95;;
48765;SDS011;34570;51.836;5.002;2022-07-23T05:13:37;6.85;;;3.42;;
48765;SDS011;34570;51.836;5.002;2022-07-23T05:16:04;7.40;;;3.25;;
48765;SDS011;34570;51.836;5.002;2022-07-23T05:18:31;8.82;;;3.20;;
48765;SDS011;34570;51.836;5.002;2022-07-23T05:20:56;7.53;;;3.83;;
48765;SDS011;34570;51.836;5.002;2022-07-23T05:23:22;8.32;;;3.45;;
48765;SDS011;34570;51.836;5.002;2022-07-23T05:25:48;12.60;;;3.83;;
48765;SDS011;34570;51.836;5.002;2022-07-23T05:28:15;7.88;;;3.63;;
48765;SDS011;34570;51.836;5.002;2022-07-23T05:30:41;42.20;;;17.42;;
48765;SDS011;34570;51.836;5.002;2022-07-23T05:33:10;38.10;;;15.93;;
48765;SDS011;34570;51.836;5.002;2022-07-23T05:35:36;68.97;;;25.25;;
48765;SDS011;34570;51.836;5.002;2022-07-23T05:38:13;11.20;;;5.45;;
48765;SDS011;34570;51.836;5.002;2022-07-23T05:40:38;61.17;;;21.73;;
48765;SDS011;34570;51.836;5.002;2022-07-23T05:43:04;51.17;;;23.17;;
48765;SDS011;34570;51.836;5.002;2022-07-23T05:45:30;28.23;;;12.27;;
48765;SDS011;34570;51.836;5.002;2022-07-23T05:47:56;28.73;;;14.75;;
48765;SDS011;34570;51.836;5.002;2022-07-23T05:50:26;9.10;;;4.18;;
48765;SDS011;34570;51.836;5.002;2022-07-23T05:52:59;5.50;;;2.67;;
48765;SDS011;34570;51.836;5.002;2022-07-23T05:55:27;7.00;;;3.47;;
48765;SDS011;34570;51.836;5.002;2022-07-23T05:57:55;6.47;;;3.30;;
48765;SDS011;34570;51.836;5.002;2022-07-23T06:00:20;4.68;;;2.88;;
48765;SDS011;34570;51.836;5.002;2022-07-23T06:02:46;9.82;;;3.10;;
48765;SDS011;34570;51.836;5.002;2022-07-23T06:05:14;5.82;;;3.00;;
48765;SDS011;34570;51.836;5.002;2022-07-23T06:07:40;4.40;;;2.83;;
48765;SDS011;34570;51.836;5.002;2022-07-23T06:10:06;7.72;;;2.92;;
48765;SDS011;34570;51.836;5.002;2022-07-23T06:12:32;9.82;;;3.33;;
48765;SDS011;34570;51.836;5.002;2022-07-23T06:14:57;7.70;;;3.10;;
48765;SDS011;34570;51.836;5.002;2022-07-23T06:17:23;7.15;;;3.42;;
48765;SDS011;34570;51.836;5.002;2022-07-23T06:19:49;6.38;;;3.25;;
48765;SDS011;34570;51.836;5.002;2022-07-23T06:22:15;9.68;;;2.72;;
48765;SDS011;34570;51.836;5.002;2022-07-23T06:24:40;4.82;;;2.55;;
48765;SDS011;34570;51.836;5.002;2022-07-23T06:27:06;5.30;;;2.83;;
48765;SDS011;34570;51.836;5.002;2022-07-23T06:29:43;4.53;;;2.55;;
48765;SDS011;34570;51.836;5.002;2022-07-23T06:32:09;10.35;;;2.78;;
48765;SDS011;34570;51.836;5.002;2022-07-23T06:34:44;7.93;;;2.42;;
48765;SDS011;34570;51.836;5.002;2022-07-23T06:37:13;8.13;;;2.72;;
48765;SDS011;34570;51.836;5.002;2022-07-23T06:39:45;6.07;;;3.00;;
48765;SDS011;34570;51.836;5.002;2022-07-23T06:42:11;7.35;;;2.97;;
48765;SDS011;34570;51.836;5.002;2022-07-23T06:44:45;7.75;;;2.70;;
48765;SDS011;34570;51.836;5.002;2022-07-23T06:47:14;5.63;;;2.67;;
48765;SDS011;34570;51.836;5.002;2022-07-23T06:49:40;4.07;;;2.20;;
48765;SDS011;34570;51.836;5.002;2022-07-23T06:55:09;6.15;;;2.33;;
48765;SDS011;34570;51.836;5.002;2022-07-23T06:57:35;7.28;;;2.55;;
48765;SDS011;34570;51.836;5.002;2022-07-23T07:00:00;5.32;;;2.00;;
48765;SDS011;34570;51.836;5.002;2022-07-23T07:02:26;4.57;;;1.50;;
48765;SDS011;34570;51.836;5.002;2022-07-23T07:04:53;3.50;;;1.50;;
48765;SDS011;34570;51.836;5.002;2022-07-23T07:07:19;3.13;;;1.50;;
48765;SDS011;34570;51.836;5.002;2022-07-23T07:09:44;6.38;;;1.80;;
48765;SDS011;34570;51.836;5.002;2022-07-23T07:12:10;3.67;;;1.52;;
48765;SDS011;34570;51.836;5.002;2022-07-23T07:14:37;3.15;;;1.63;;
48765;SDS011;34570;51.836;5.002;2022-07-23T07:17:02;3.83;;;1.92;;
48765;SDS011;34570;51.836;5.002;2022-07-23T07:19:28;4.25;;;2.08;;
48765;SDS011;34570;51.836;5.002;2022-07-23T07:21:56;7.00;;;2.03;;
48765;SDS011;34570;51.836;5.002;2022-07-23T07:24:22;5.93;;;2.05;;
48765;SDS011;34570;51.836;5.002;2022-07-23T07:26:47;3.85;;;2.20;;
48765;SDS011;34570;51.836;5.002;2022-07-23T07:29:13;4.90;;;2.20;;
48765;SDS011;34570;51.836;5.002;2022-07-23T07:31:38;5.78;;;1.95;;
48765;SDS011;34570;51.836;5.002;2022-07-23T07:34:04;5.30;;;2.10;;
48765;SDS011;34570;51.836;5.002;2022-07-23T07:36:29;4.85;;;1.95;;
48765;SDS011;34570;51.836;5.002;2022-07-23T07:38:55;4.80;;;1.80;;
48765;SDS011;34570;51.836;5.002;2022-07-23T07:41:20;7.50;;;2.17;;
48765;SDS011;34570;51.836;5.002;2022-07-23T07:43:49;6.35;;;2.20;;
48765;SDS011;34570;51.836;5.002;2022-07-23T07:46:15;5.72;;;2.50;;
48765;SDS011;34570;51.836;5.002;2022-07-23T07:48:40;5.78;;;2.08;;
48765;SDS011;34570;51.836;5.002;2022-07-23T07:51:06;4.88;;;2.05;;
48765;SDS011;34570;51.836;5.002;2022-07-23T07:53:31;7.80;;;1.98;;
48765;SDS011;34570;51.836;5.002;2022-07-23T07:55:57;2.63;;;1.40;;
48765;SDS011;34570;51.836;5.002;2022-07-23T07:58:22;6.93;;;1.65;;
48765;SDS011;34570;51.836;5.002;2022-07-23T08:00:48;6.15;;;1.73;;
48765;SDS011;34570;51.836;5.002;2022-07-23T08:03:13;4.75;;;1.92;;
48765;SDS011;34570;51.836;5.002;2022-07-23T08:05:39;5.78;;;2.10;;
48765;SDS011;34570;51.836;5.002;2022-07-23T08:08:04;4.35;;;1.90;;
48765;SDS011;34570;51.836;5.002;2022-07-23T08:10:30;8.18;;;2.10;;
48765;SDS011;34570;51.836;5.002;2022-07-23T08:12:57;3.20;;;1.58;;
48765;SDS011;34570;51.836;5.002;2022-07-23T08:15:23;3.67;;;2.00;;
48765;SDS011;34570;51.836;5.002;2022-07-23T08:17:48;5.63;;;1.73;;
48765;SDS011;34570;51.836;5.002;2022-07-23T08:20:15;6.50;;;2.00;;
48765;SDS011;34570;51.836;5.002;2022-07-23T08:22:45;3.83;;;1.65;;
48765;SDS011;34570;51.836;5.002;2022-07-23T08:25:10;4.00;;;1.58;;
48765;SDS011;34570;51.836;5.002;2022-07-23T08:27:36;3.88;;;1.70;;
48765;SDS011;34570;51.836;5.002;2022-07-23T08:30:01;3.10;;;1.55;;
48765;SDS011;34570;51.836;5.002;2022-07-23T08:32:27;4.00;;;1.50;;
48765;SDS011;34570;51.836;5.002;2022-07-23T08:34:52;2.58;;;1.50;;
48765;SDS011;34570;51.836;5.002;2022-07-23T08:37:18;2.75;;;1.38;;
48765;SDS011;34570;51.836;5.002;2022-07-23T08:39:43;2.70;;;1.40;;
48765;SDS011;34570;51.836;5.002;2022-07-23T08:42:09;3.83;;;1.50;;
48765;SDS011;34570;51.836;5.002;2022-07-23T08:44:35;2.45;;;1.40;;
48765;SDS011;34570;51.836;5.002;2022-07-23T08:47:00;3.78;;;1.90;;
48765;SDS011;34570;51.836;5.002;2022-07-23T08:49:27;3.38;;;1.38;;
48765;SDS011;34570;51.836;5.002;2022-07-23T08:51:53;4.93;;;1.33;;
48765;SDS011;34570;51.836;5.002;2022-07-23T08:54:18;4.07;;;1.83;;
48765;SDS011;34570;51.836;5.002;2022-07-23T08:56:44;3.03;;;1.60;;
48765;SDS011;34570;51.836;5.002;2022-07-23T08:59:09;5.75;;;1.50;;
48765;SDS011;34570;51.836;5.002;2022-07-23T09:01:38;5.07;;;1.55;;
48765;SDS011;34570;51.836;5.002;2022-07-23T09:04:04;3.08;;;1.48;;
48765;SDS011;34570;51.836;5.002;2022-07-23T09:06:30;5.15;;;1.63;;
48765;SDS011;34570;51.836;5.002;2022-07-23T09:08:55;4.82;;;1.58;;
48765;SDS011;34570;51.836;5.002;2022-07-23T09:11:21;2.60;;;1.30;;
48765;SDS011;34570;51.836;5.002;2022-07-23T09:13:51;5.93;;;1.75;;
48765;SDS011;34570;51.836;5.002;2022-07-23T09:21:28;2.85;;;1.50;;
48765;SDS011;34570;51.836;5.002;2022-07-23T09:28:58;4.75;;;1.90;;
48765;SDS011;34570;51.836;5.002;2022-07-23T09:31:25;3.30;;;1.40;;
48765;SDS011;34570;51.836;5.002;2022-07-23T09:33:51;1.90;;;1.10;;
48765;SDS011;34570;51.836;5.002;2022-07-23T09:36:25;3.92;;;1.13;;
48765;SDS011;34570;51.836;5.002;2022-07-23T09:38:51;4.57;;;1.50;;
48765;SDS011;34570;51.836;5.002;2022-07-23T09:41:17;1.85;;;1.15;;
48765;SDS011;34570;51.836;5.002;2022-07-23T09:43:43;4.07;;;1.60;;
48765;SDS011;34570;51.836;5.002;2022-07-23T09:46:25;2.80;;;1.38;;
48765;SDS011;34570;51.836;5.002;2022-07-23T09:48:54;2.97;;;1.67;;
48765;SDS011;34570;51.836;5.002;2022-07-23T09:51:22;3.13;;;1.77;;
48765;SDS011;34570;51.836;5.002;2022-07-23T09:53:54;5.65;;;2.08;;
48765;SDS011;34570;51.836;5.002;2022-07-23T09:56:19;4.32;;;1.90;;
48765;SDS011;34570;51.836;5.002;2022-07-23T09:58:45;3.75;;;1.73;;
48765;SDS011;34570;51.836;5.002;2022-07-23T10:01:14;4.20;;;1.58;;
48765;SDS011;34570;51.836;5.002;2022-07-23T10:03:41;7.63;;;1.83;;
48765;SDS011;34570;51.836;5.002;2022-07-23T10:06:36;2.08;;;1.60;;
48765;SDS011;34570;51.836;5.002;2022-07-23T10:09:22;4.22;;;1.75;;
48765;SDS011;34570;51.836;5.002;2022-07-23T10:12:26;2.70;;;1.20;;
48765;SDS011;34570;51.836;5.002;2022-07-23T10:15:01;3.80;;;1.30;;
48765;SDS011;34570;51.836;5.002;2022-07-23T10:17:28;2.15;;;1.45;;
48765;SDS011;34570;51.836;5.002;2022-07-23T10:19:54;13.07;;;6.65;;
48765;SDS011;34570;51.836;5.002;2022-07-23T10:22:21;34.25;;;13.50;;
48765;SDS011;34570;51.836;5.002;2022-07-23T10:38:23;2.67;;;1.67;;
48765;SDS011;34570;51.836;5.002;2022-07-23T10:43:21;4.95;;;1.92;;
48765;SDS011;34570;51.836;5.002;2022-07-23T10:45:46;3.83;;;1.58;;
48765;SDS011;34570;51.836;5.002;2022-07-23T10:50:39;2.47;;;1.42;;
48765;SDS011;34570;51.836;5.002;2022-07-23T10:57:59;3.53;;;1.90;;
48765;SDS011;34570;51.836;5.002;2022-07-23T11:00:25;3.83;;;1.60;;
48765;SDS011;34570;51.836;5.002;2022-07-23T11:02:51;4.15;;;2.08;;
48765;SDS011;34570;51.836;5.002;2022-07-23T11:05:18;3.22;;;1.92;;
48765;SDS011;34570;51.836;5.002;2022-07-23T11:10:47;6.32;;;1.90;;
48765;SDS011;34570;51.836;5.002;2022-07-23T11:34:34;2.65;;;1.83;;
48765;SDS011;34570;51.836;5.002;2022-07-23T11:37:00;3.88;;;1.80;;
48765;SDS011;34570;51.836;5.002;2022-07-23T11:39:27;2.90;;;2.03;;
48765;SDS011;34570;51.836;5.002;2022-07-23T11:41:53;3.88;;;2.00;;
48765;SDS011;34570;51.836;5.002;2022-07-23T11:44:25;3.97;;;2.40;;
48765;SDS011;34570;51.836;5.002;2022-07-23T11:46:58;3.38;;;1.88;;
48765;SDS011;34570;51.836;5.002;2022-07-23T11:49:24;4.63;;;1.95;;
48765;SDS011;34570;51.836;5.002;2022-07-23T11:52:06;6.32;;;1.73;;
48765;SDS011;34570;51.836;5.002;2022-07-23T11:54:32;3.40;;;1.90;;
48765;SDS011;34570;51.836;5.002;2022-07-23T11:56:58;4.55;;;2.40;;
48765;SDS011;34570;51.836;5.002;2022-07-23T11:59:24;4.55;;;1.58;;
48765;SDS011;34570;51.836;5.002;2022-07-23T12:04:23;2.92;;;1.67;;
48765;SDS011;34570;51.836;5.002;2022-07-23T12:06:49;2.78;;;1.70;;
48765;SDS011;34570;51.836;5.002;2022-07-23T12:09:14;3.50;;;1.73;;
48765;SDS011;34570;51.836;5.002;2022-07-23T12:11:55;2.80;;;1.48;;
48765;SDS011;34570;51.836;5.002;2022-07-23T12:14:21;2.65;;;1.30;;
48765;SDS011;34570;51.836;5.002;2022-07-23T12:16:46;1.90;;;1.27;;
48765;SDS011;34570;51.836;5.002;2022-07-23T12:19:12;4.45;;;2.00;;
48765;SDS011;34570;51.836;5.002;2022-07-23T12:21:38;2.55;;;1.40;;
48765;SDS011;34570;51.836;5.002;2022-07-23T12:24:07;3.22;;;1.05;;
48765;SDS011;34570;51.836;5.002;2022-07-23T12:26:32;7.75;;;1.30;;
48765;SDS011;34570;51.836;5.002;2022-07-23T12:28:58;2.47;;;1.50;;
48765;SDS011;34570;51.836;5.002;2022-07-23T12:31:27;3.25;;;1.40;;
48765;SDS011;34570;51.836;5.002;2022-07-23T12:33:52;2.40;;;1.20;;
48765;SDS011;34570;51.836;5.002;2022-07-23T12:36:18;2.50;;;1.20;;
48765;SDS011;34570;51.836;5.002;2022-07-23T12:38:46;2.15;;;1.15;;
48765;SDS011;34570;51.836;5.002;2022-07-23T12:41:12;3.83;;;1.58;;
48765;SDS011;34570;51.836;5.002;2022-07-23T12:43:41;3.95;;;1.80;;
48765;SDS011;34570;51.836;5.002;2022-07-23T12:46:09;3.85;;;1.60;;
48765;SDS011;34570;51.836;5.002;2022-07-23T12:48:39;3.08;;;1.83;;
48765;SDS011;34570;51.836;5.002;2022-07-23T12:53:40;4.40;;;0.90;;
48765;SDS011;34570;51.836;5.002;2022-07-23T12:56:10;1.95;;;1.00;;
48765;SDS011;34570;51.836;5.002;2022-07-23T12:58:51;2.33;;;1.00;;
48765;SDS011;34570;51.836;5.002;2022-07-23T13:03:54;3.13;;;0.90;;
48765;SDS011;34570;51.836;5.002;2022-07-23T13:06:20;2.22;;;0.95;;
48765;SDS011;34570;51.836;5.002;2022-07-23T13:08:45;1.40;;;0.95;;
48765;SDS011;34570;51.836;5.002;2022-07-23T13:11:11;1.95;;;1.10;;
48765;SDS011;34570;51.836;5.002;2022-07-23T13:16:28;3.72;;;1.33;;
48765;SDS011;34570;51.836;5.002;2022-07-23T13:18:54;3.53;;;1.17;;
48765;SDS011;34570;51.836;5.002;2022-07-23T13:21:19;2.00;;;1.10;;
48765;SDS011;34570;51.836;5.002;2022-07-23T13:23:45;2.13;;;1.10;;
48765;SDS011;34570;51.836;5.002;2022-07-23T13:26:10;2.63;;;1.40;;
48765;SDS011;34570;51.836;5.002;2022-07-23T13:28:36;2.38;;;1.02;;
48765;SDS011;34570;51.836;5.002;2022-07-23T13:31:01;2.78;;;1.60;;
48765;SDS011;34570;51.836;5.002;2022-07-23T13:33:27;2.40;;;1.50;;
48765;SDS011;34570;51.836;5.002;2022-07-23T13:35:52;3.00;;;1.83;;
48765;SDS011;34570;51.836;5.002;2022-07-23T13:38:18;2.85;;;1.77;;
48765;SDS011;34570;51.836;5.002;2022-07-23T13:40:45;2.60;;;1.52;;
48765;SDS011;34570;51.836;5.002;2022-07-23T13:43:11;4.50;;;1.95;;
48765;SDS011;34570;51.836;5.002;2022-07-23T13:45:37;2.63;;;1.30;;
48765;SDS011;34570;51.836;5.002;2022-07-23T13:48:03;2.88;;;1.58;;
48765;SDS011;34570;51.836;5.002;2022-07-23T13:50:29;2.50;;;1.33;;
48765;SDS011;34570;51.836;5.002;2022-07-23T13:52:55;2.40;;;1.58;;
48765;SDS011;34570;51.836;5.002;2022-07-23T13:55:20;2.15;;;1.30;;
48765;SDS011;34570;51.836;5.002;2022-07-23T13:57:46;2.00;;;1.02;;
48765;SDS011;34570;51.836;5.002;2022-07-23T14:00:11;1.90;;;1.10;;
48765;SDS011;34570;51.836;5.002;2022-07-23T14:02:37;3.63;;;1.13;;
48765;SDS011;34570;51.836;5.002;2022-07-23T14:05:04;2.50;;;1.00;;
48765;SDS011;34570;51.836;5.002;2022-07-23T14:07:30;2.05;;;0.93;;
48765;SDS011;34570;51.836;5.002;2022-07-23T14:09:55;1.33;;;0.88;;
48765;SDS011;34570;51.836;5.002;2022-07-23T14:12:21;1.48;;;0.95;;
48765;SDS011;34570;51.836;5.002;2022-07-23T14:14:47;1.25;;;0.80;;
48765;SDS011;34570;51.836;5.002;2022-07-23T14:17:12;2.22;;;0.80;;
48765;SDS011;34570;51.836;5.002;2022-07-23T14:19:38;2.00;;;0.82;;
48765;SDS011;34570;51.836;5.002;2022-07-23T14:22:04;1.70;;;0.80;;
48765;SDS011;34570;51.836;5.002;2022-07-23T14:24:29;1.50;;;0.98;;
48765;SDS011;34570;51.836;5.002;2022-07-23T14:26:55;1.75;;;0.80;;
48765;SDS011;34570;51.836;5.002;2022-07-23T14:29:20;2.45;;;0.80;;
48765;SDS011;34570;51.836;5.002;2022-07-23T14:31:46;1.33;;;0.88;;
48765;SDS011;34570;51.836;5.002;2022-07-23T14:34:11;2.63;;;0.90;;
48765;SDS011;34570;51.836;5.002;2022-07-23T14:36:37;3.10;;;1.50;;
48765;SDS011;34570;51.836;5.002;2022-07-23T14:39:03;2.97;;;1.10;;
48765;SDS011;34570;51.836;5.002;2022-07-23T14:41:28;4.93;;;1.23;;
48765;SDS011;34570;51.836;5.002;2022-07-23T14:43:54;2.40;;;1.00;;
48765;SDS011;34570;51.836;5.002;2022-07-23T14:46:19;2.50;;;1.02;;
48765;SDS011;34570;51.836;5.002;2022-07-23T14:48:45;1.63;;;0.98;;
48765;SDS011;34570;51.836;5.002;2022-07-23T14:51:10;2.58;;;1.33;;
48765;SDS011;34570;51.836;5.002;2022-07-23T14:53:36;2.92;;;1.08;;
48765;SDS011;34570;51.836;5.002;2022-07-23T14:56:02;2.50;;;1.40;;
48765;SDS011;34570;51.836;5.002;2022-07-23T14:58:28;2.35;;;1.40;;
48765;SDS011;34570;51.836;5.002;2022-07-23T15:00:54;2.45;;;1.55;;
48765;SDS011;34570;51.836;5.002;2022-07-23T15:03:19;4.47;;;1.35;;
48765;SDS011;34570;51.836;5.002;2022-07-23T15:05:45;3.45;;;1.48;;
48765;SDS011;34570;51.836;5.002;2022-07-23T15:08:11;3.17;;;1.60;;
48765;SDS011;34570;51.836;5.002;2022-07-23T15:10:36;1.90;;;1.40;;
48765;SDS011;34570;51.836;5.002;2022-07-23T15:13:02;4.28;;;1.60;;
48765;SDS011;34570;51.836;5.002;2022-07-23T15:15:27;3.40;;;1.55;;
48765;SDS011;34570;51.836;5.002;2022-07-23T15:17:53;3.13;;;1.30;;
48765;SDS011;34570;51.836;5.002;2022-07-23T15:20:18;2.92;;;1.15;;
48765;SDS011;34570;51.836;5.002;2022-07-23T15:22:44;2.20;;;1.38;;
48765;SDS011;34570;51.836;5.002;2022-07-23T15:25:10;2.80;;;1.30;;
48765;SDS011;34570;51.836;5.002;2022-07-23T15:27:36;3.10;;;1.20;;
48765;SDS011;34570;51.836;5.002;2022-07-23T15:30:02;4.65;;;1.13;;
48765;SDS011;34570;51.836;5.002;2022-07-23T15:32:28;2.55;;;1.27;;
48765;SDS011;34570;51.836;5.002;2022-07-23T15:34:53;4.32;;;1.17;;
48765;SDS011;34570;51.836;5.002;2022-07-23T15:37:19;2.55;;;1.40;;
48765;SDS011;34570;51.836;5.002;2022-07-23T15:39:44;2.83;;;1.30;;
48765;SDS011;34570;51.836;5.002;2022-07-23T15:42:10;3.35;;;1.20;;
48765;SDS011;34570;51.836;5.002;2022-07-23T15:44:35;9.77;;;1.38;;
48765;SDS011;34570;51.836;5.002;2022-07-23T15:47:01;5.75;;;1.60;;
48765;SDS011;34570;51.836;5.002;2022-07-23T15:49:27;3.75;;;1.20;;
48765;SDS011;34570;51.836;5.002;2022-07-23T15:51:52;4.13;;;2.13;;
48765;SDS011;34570;51.836;5.002;2022-07-23T15:54:20;4.03;;;1.48;;
48765;SDS011;34570;51.836;5.002;2022-07-23T15:56:45;4.43;;;1.70;;